Hanover, Maine
Current Conditions -  °F | °C
As of 8:52 AM on Thursday 18 Dec 2014 (Local Time) from KBML Reporting Station
Light Snow Light Snow  
Wind Chill: 25°   Ceiling: 2400
Heat Index: 32°   Visibility: 6mi
Dew Point: 27°   Wind: 8mph
Humidity: 82%   Direction: 290°WNW
Pressure: 29.69"   Gusts: 20mph
Location:  44.5°N, 70.69°W
Report Text: KBML 181352Z AUTO 29007G17KT 6SM -SN BKN024 OVC055 00/M03 A2969 RMK AO2 SNB38 SLP066 P0000 T00001028
Loading
Personal Weather Stations






























Interactive Weather Map New forecast layout! Learn more

10-Day Weather Forecast

Advertisements
Track Severe Weather on mobile